2022年6月27日

时间 代码 天气 温度 能见度 天花板 METAR/SPECI
5:00 下午
V
72 °F 6¼ mi+ - 310° 310° 7 kt METAR LFSL 271500Z AUTO 31007KT 290V350 CAVOK 22/11 Q1021 NOSIG
4:30 下午
V
72 °F 6¼ mi+ - 290° 290° 8 kt METAR LFSL 271430Z AUTO 29008KT 260V320 9999 FEW043 22/11 Q1021 NOSIG
4:00 下午
V
72 °F 6¼ mi+ - 310° 310° 9 kt METAR LFSL 271400Z AUTO 31009KT 280V350 9999 SCT040 SCT058 22/11 Q1021 NOSIG
3:30 下午
V
72 °F 6¼ mi+ 5.800 ft 310° 310° 8 kt METAR LFSL 271330Z AUTO 31008KT 260V010 9999 SCT040 SCT047 BKN058 22/12 Q1021 NOSIG
3:00 下午
V
70 °F 6¼ mi+ - 320° 320° 7 kt METAR LFSL 271300Z AUTO 32007KT 270V010 9999 FEW001 21/12 Q1021 NOSIG
2:30 下午
V
68 °F 6¼ mi+ 4.100 ft Var Var 5 kt METAR LFSL 271230Z AUTO VRB05KT 9999 FEW033 BKN041 BKN048 20/12 Q1021 NOSIG
2:00 下午
V
68 °F 6¼ mi+ 3.100 ft 340° 340° 5 kt METAR LFSL 271200Z AUTO 34005KT 220V020 9999 BKN031 20/12 Q1021 NOSIG
1:30 下午
V
66 °F 6¼ mi+ 3.000 ft 310° 310° 7 kt METAR LFSL 271130Z AUTO 31007KT 280V350 9999 BKN030 19/12 Q1021 NOSIG
1:00 下午
M
66 °F 6¼ mi+ 2.800 ft 340° 340° 7 kt METAR LFSL 271100Z AUTO 34007KT 300V030 9999 BKN028 BKN035 19/12 Q1021 NOSIG
12:30 下午
M
64 °F 6¼ mi+ 2.500 ft 330° 330° 6 kt METAR LFSL 271030Z AUTO 33006KT 270V360 9999 BKN025 18/12 Q1021 NOSIG
12:00 下午
V
64 °F 6¼ mi+ - 320° 320° 7 kt METAR LFSL 271000Z AUTO 32007KT 280V010 CAVOK 18/13 Q1021 NOSIG
11:30 上午
V
63 °F 6¼ mi+ 23.000 ft 330° 330° 7 kt METAR LFSL 270930Z AUTO 33007KT 290V010 9999 FEW019 BKN230 17/13 Q1020 NOSIG
11:00 上午
V
63 °F 6¼ mi+ - 330° 330° 11 kt METAR LFSL 270900Z AUTO 33011KT 9999 FEW019 17/12 Q1020 NOSIG
10:30 上午
V
63 °F 6¼ mi+ - 340° 340° 9 kt METAR LFSL 270830Z AUTO 34009KT 300V010 9999 FEW011 17/13 Q1020 NOSIG
10:00 上午
I
59 °F 6¼ mi+ 700 ft 320° 320° 11 kt METAR LFSL 270800Z AUTO 32011KT 9999 BKN007 15/13 Q1020 BECMG FEW004 SCT030 BKN045
9:30 上午
V
57 °F 6¼ mi+ - 320° 320° 10 kt METAR LFSL 270730Z AUTO 32010KT 9999 SCT006 14/13 Q1019 NOSIG
9:00 上午
V
57 °F 6¼ mi+ - 320° 320° 8 kt METAR LFSL 270700Z AUTO 32008KT 9999 FEW006 14/13 Q1019 TEMPO BKN003
8:30 上午
L
57 °F 6¼ mi+ 400 ft 310° 310° 8 kt METAR LFSL 270630Z AUTO 31008KT 9999 BKN004 BKN130 14/13 Q1019 BECMG FEW007 SCT030 BKN060
8:00 上午
V
57 °F 6¼ mi+ 4.700 ft 310° 310° 7 kt METAR LFSL 270600Z AUTO 31007KT 9999 FEW004 BKN047 BKN056 14/13 Q1019 NOSIG
7:30 上午
V
57 °F 6¼ mi+ 6.200 ft 310° 310° 6 kt METAR LFSL 270530Z AUTO 31006KT 9999 FEW004 BKN062 BKN096 14/14 Q1019 NOSIG
7:00 上午
M
57 °F 6¼ mi+ 2.400 ft 300° 300° 5 kt METAR LFSL 270500Z AUTO 30005KT 9999 FEW004 BKN024 BKN052 14/14 Q1018 TEMPO 4000 RA BKN004 BKN030 FEW060CB
6:30 上午
L
57 °F 6¼ mi+ 400 ft 310° 310° 5 kt METAR LFSL 270430Z AUTO 31005KT 9999 BKN004 BKN008 OVC130 14/14 Q1018 TEMPO 4000 RA BKN004 BKN030 FEW060CB
6:00 上午
I
57 °F 6¼ mi+ 500 ft 310° 310° 7 kt METAR LFSL 270400Z AUTO 31007KT 9999 BKN005/// BKN020/// BKN049/// //////CB 14/14 Q1017 TEMPO 4000 RA
5:30 上午
M
57 °F 6¼ mi+ 1.600 ft 340° 340° 8 kt METAR LFSL 270330Z AUTO 34008KT 9999 -RA SCT004/// SCT010/// BKN016/// //////CB 14/14 Q1017 TEMPO 4000 RA BKN004 BKN030 FEW060CB
5:00 上午
I
57 °F 6¼ mi+ 500 ft 300° 300° 8 kt METAR LFSL 270300Z AUTO 30008KT 9999 RA BKN005/// BKN045/// OVC100/// //////CB 14/14 Q1017 TEMPO 4000 RA
4:30 上午
V
57 °F 6¼ mi+ 9.800 ft 330° 330° 7 kt METAR LFSL 270230Z AUTO 33007KT 300V360 9999 -RA FEW018/// OVC098/// ///CB 14/14 Q1016
4:00 上午
M
59 °F 6¼ mi+ 1.600 ft 300° 300° 7 kt METAR LFSL 270200Z AUTO 30007KT 9999 -DZ SCT004/// SCT008/// BKN016/// //////CB 15/14 Q1017
3:30 上午
I
59 °F 6¼ mi+ 600 ft 290° 290° 6 kt METAR LFSL 270130Z AUTO 29006KT 240V320 9999 BKN006/// BKN066/// OVC084/// //////CB 15/14 Q1017
3:00 上午
I
59 °F 6¼ mi+ 500 ft 340° 340° 5 kt METAR LFSL 270100Z AUTO 34005KT 310V010 9999 BKN005/// BKN016/// BKN062/// ///CB 15/14 Q1016
2:30 上午
I
59 °F 6¼ mi+ 600 ft 290° 290° 7 kt METAR LFSL 270030Z AUTO 29007KT 260V320 9999 -RA BKN006/// OVC011/// ///CB 15/14 Q1016
2:00 上午
I
59 °F 6¼ mi+ 500 ft 310° 310° 9 kt METAR LFSL 270000Z AUTO 31009KT 9999 OVC005/// ///TCU 15/14 Q1016
1:30 上午
I
59 °F 6¼ mi+ 500 ft 310° 310° 7 kt METAR LFSL 262330Z AUTO 31007KT 9999 BKN005 OVC009 15/15 Q1016
1:00 上午
I
59 °F 6¼ mi+ 500 ft 300° 300° 6 kt METAR LFSL 262300Z AUTO 30006KT 9999 BKN005 OVC009 15/15 Q1016
12:30 上午
I
59 °F 6¼ mi+ 700 ft 320° 320° 7 kt METAR LFSL 262230Z AUTO 32007KT 9999 BKN007/// OVC011/// //////CB 15/15 Q1016
12:00 上午
L
59 °F 6¼ mi+ 400 ft 290° 290° 4 kt METAR LFSL 262200Z AUTO 29004KT 260V320 9999 -RA BKN004/// OVC008/// ///CB 15/15 Q1016

2022年6月26日

时间 代码 天气 温度 能见度 天花板 METAR/SPECI
11:30 下午
I
59 °F 6¼ mi+ 500 ft 300° 300° 7 kt METAR LFSL 262130Z AUTO 30007KT 9999 BKN005/// BKN009/// BKN044/// //////CB 15/15 Q1016
11:00 下午
V
59 °F 6¼ mi+ 4.500 ft 290° 290° 7 kt METAR LFSL 262100Z AUTO 29007KT 250V310 9999 FEW011/// OVC045/// ///CB 15/15 Q1016
10:30 下午
V
59 °F 6¼ mi+ 4.200 ft 270° 270° 4 kt METAR LFSL 262030Z AUTO 27004KT 200V320 9999 OVC042/// ///TCU 15/15 Q1016
10:00 下午
V
59 °F 6¼ mi+ 4.200 ft 290° 290° 4 kt METAR LFSL 262000Z AUTO 29004KT 9999 BKN042 BKN100 15/14 Q1015 TEMPO BKN002
9:30 下午
V
61 °F 6¼ mi+ 11.000 ft 300° 300° 5 kt METAR LFSL 261930Z AUTO 30005KT 260V320 9999 FEW005 SCT094 BKN110 16/14 Q1015 TEMPO BKN002
9:00 下午
V
61 °F 6¼ mi+ 11.000 ft 300° 300° 4 kt METAR LFSL 261900Z AUTO 30004KT 250V330 9999 FEW008 BKN110 16/15 Q1015 TEMPO BKN002
8:30 下午
V
63 °F 6¼ mi+ 7.600 ft 310° 310° 5 kt METAR LFSL 261830Z AUTO 31005KT 280V340 9999 FEW008 BKN076 17/15 Q1014 TEMPO BKN002
8:00 下午
V
63 °F 6¼ mi+ 7.800 ft 360° 360° 5 kt METAR LFSL 261800Z AUTO 36005KT 310V050 9999 SCT007 BKN078 BKN130 17/15 Q1014 TEMPO BKN002
7:30 下午
I
61 °F 6¼ mi+ 600 ft 350° 350° 5 kt METAR LFSL 261730Z AUTO 35005KT 310V030 9999 BKN006/// BKN050/// BKN082/// //////TCU 16/15 Q1014 TEMPO BKN002
7:00 下午
V
61 °F 6¼ mi+ 4.500 ft 020° 020° 5 kt METAR LFSL 261700Z AUTO 02005KT 340V060 9999 SCT006/// BKN045/// OVC080/// //////CB 16/14 Q1013 TEMPO BKN002
6:30 下午
I
61 °F 6¼ mi+ 800 ft 320° 320° 9 kt METAR LFSL 261630Z AUTO 32009KT 9999 BKN008/// OVC041/// //////CB 16/15 Q1014 TEMPO BKN002
6:00 下午
V
61 °F 6¼ mi+ 3.500 ft 320° 320° 8 kt METAR LFSL 261600Z AUTO 32008KT 9999 FEW006/// OVC035/// ///CB 16/15 Q1014 TEMPO BKN002
5:30 下午
I
61 °F 6¼ mi+ 600 ft 320° 320° 9 kt METAR LFSL 261530Z AUTO 32009KT 9999 BKN006/// OVC035/// //////CB 16/15 Q1014 TEMPO BKN002
5:00 下午
I
61 °F 6¼ mi+ 600 ft 320° 320° 11 kt METAR LFSL 261500Z AUTO 32011KT 9999 OVC006/// //////TCU 16/15 Q1014 TEMPO 3000 -RA BKN002 BKN018 FEW050CB
4:30 下午
I
61 °F 6¼ mi+ 500 ft 320° 320° 12 kt METAR LFSL 261430Z AUTO 32012KT 9999 BKN005/// BKN010/// BKN032/// //////TCU 16/15 Q1013 TEMPO 3000 -RA BKN002 BKN018 FEW050CB
4:00 下午
I
61 °F 6¼ mi+ 600 ft 320° 320° 9 kt METAR LFSL 261400Z AUTO 32009KT 9999 OVC006/// ///TCU 16/15 Q1014 TEMPO 3000 -RA BKN002 BKN018 FEW050CB
3:30 下午
I
61 °F 6¼ mi+ 500 ft 320° 320° 8 kt METAR LFSL 261330Z AUTO 32008KT 9999 OVC005/// ///TCU 16/15 Q1014 TEMPO 3000 -RA BKN002 BKN018 FEW050CB
3:00 下午
L
63 °F 6¼ mi+ 400 ft 320° 320° 10 kt METAR LFSL 261300Z AUTO 32010KT 9999 OVC004/// ///CB 17/15 Q1013 TEMPO 3000 -RA
2:30 下午
L
61 °F 6¼ mi+ 400 ft 330° 330° 9 kt METAR LFSL 261230Z AUTO 33009KT 9999 -RA OVC004/// ///TCU 16/15 Q1013 TEMPO 3000 -RA BKN002 BKN018 FEW050CB
2:00 下午
L
59 °F 6¼ mi+ 400 ft 320° 320° 8 kt METAR LFSL 261200Z AUTO 32008KT 9999 -RA OVC004/// ///TCU 15/15 Q1014 TEMPO 3000 -RA BKN002 BKN018 FEW050CB
1:30 下午
L
59 °F 6¼ mi+ 400 ft 300° 300° 8 kt METAR LFSL 261130Z AUTO 30008KT 240V330 9999 OVC004/// //////CB 15/14 Q1014 TEMPO 3000 -RA
1:00 下午
L
61 °F 6¼ mi+ 400 ft 320° 320° 8 kt METAR LFSL 261100Z AUTO 32008KT 9999 OVC004/// ///TCU 16/15 Q1014 TEMPO 3000 -RA BKN002 BKN018 FEW050CB
12:30 下午
L
59 °F 6¼ mi+ 300 ft 330° 330° 8 kt METAR LFSL 261030Z AUTO 33008KT 290V360 9999 OVC003/// ///TCU 15/15 Q1014 TEMPO 3000 -RA BKN002 BKN018 FEW050CB
12:00 下午
L
57 °F 6¼ mi+ 200 ft 330° 330° 7 kt METAR LFSL 261000Z AUTO 33007KT 300V010 9999 OVC002/// //////TCU 14/14 Q1014 TEMPO 3000 -RA BKN002 BKN018 FEW050CB
11:30 上午
L
57 °F 6¼ mi+ 300 ft 330° 330° 7 kt METAR LFSL 260930Z AUTO 33007KT 9999 OVC003/// //////TCU 14/14 Q1014 TEMPO 3000 -RA BKN002 BKN018 FEW050CB
11:00 上午
L
57 °F 6¼ mi+ 300 ft 350° 350° 7 kt METAR LFSL 260900Z AUTO 35007KT 310V020 9999 -RA BKN003/// BKN007/// OVC040/// //////TCU 14/13 Q1014 TEMPO 3000 -RA BKN002 BKN018 FEW050CB
10:30 上午
L
55 °F 6¼ mi+ 200 ft 310° 310° 8 kt METAR LFSL 260830Z AUTO 31008KT 9999 -RADZ OVC002/// //////TCU 13/13 Q1015 TEMPO 4000 -RA BKN009 FEW050CB
10:00 上午
L
55 °F 6¼ mi+ 300 ft 360° 360° 4 kt METAR LFSL 260800Z AUTO 36004KT 300V040 9999 -RA BKN003/// BKN018/// BKN050/// //////TCU 13/13 Q1014 TEMPO 4000 -RA BKN009 FEW050CB
9:30 上午
L
55 °F 3⅛ mi 300 ft 330° 330° 6 kt METAR LFSL 260730Z AUTO 33006KT 290V350 5000 RA BR BKN003/// OVC012/// //////CB 13/13 Q1015 TEMPO NSW BKN009 FEW050CB
9:00 上午
L
55 °F 2½ mi 300 ft 320° 320° 8 kt METAR LFSL 260700Z AUTO 32008KT 290V350 9999 4100 RA BKN003/// BKN049/// OVC098/// ///CB 13/13 Q1015 TEMPO 4000 -RA BKN009 FEW050CB
8:30 上午
V
55 °F 6¼ mi+ 3.200 ft 340° 340° 6 kt METAR LFSL 260630Z AUTO 34006KT 300V020 9999 -RA SCT004/// BKN032/// BKN058/// //////CB 13/13 Q1014 TEMPO 4000 -RA BKN009 FEW050CB
8:00 上午
I
55 °F 6¼ mi+ 800 ft 330° 330° 8 kt METAR LFSL 260600Z AUTO 33008KT 9999 -RA BKN008/// OVC060/// ///CB 13/13 Q1014 TEMPO 4000 -RA BKN003
7:30 上午
I
55 °F 6¼ mi+ 900 ft 320° 320° 8 kt METAR LFSL 260530Z AUTO 32008KT 9999 FEW004/// OVC009/// ///TCU 13/13 Q1014 TEMPO BKN008
7:00 上午
L
55 °F 6¼ mi+ 300 ft 320° 320° 7 kt METAR LFSL 260500Z AUTO 32007KT 9999 -RA BKN003/// OVC008/// ///TCU 13/13 Q1014 TEMPO BKN008
6:30 上午
I
55 °F 6¼ mi+ 900 ft 300° 300° 6 kt METAR LFSL 260430Z AUTO 30006KT 9999 SCT003/// BKN009/// BKN027/// ///TCU 13/13 Q1014 TEMPO BKN008
6:00 上午
V
55 °F 6¼ mi+ 10.000 ft 340° 340° 7 kt METAR LFSL 260400Z AUTO 34007KT 310V010 9999 -RA FEW003/// SCT062/// OVC100/// //////CB 13/13 Q1014 TEMPO 4000 -RA BKN008
5:30 上午
V
57 °F 5 mi 10.000 ft 310° 310° 8 kt METAR LFSL 260330Z AUTO 31008KT 8000 RA FEW008/// OVC100/// //////CB 14/13 Q1015 TEMPO 4000 -RA BKN008
5:00 上午
V
57 °F 6¼ mi+ 7.200 ft 320° 320° 8 kt METAR LFSL 260300Z AUTO 32008KT 9999 RA FEW003/// OVC072/// ///CB 14/14 Q1014
4:30 上午
L
57 °F 6¼ mi+ 300 ft 310° 310° 7 kt METAR LFSL 260230Z AUTO 31007KT 9999 BKN003/// OVC080/// ///TCU 14/14 Q1014
4:00 上午
V
57 °F 6¼ mi+ 8.200 ft 330° 330° 7 kt METAR LFSL 260200Z AUTO 33007KT 9999 -RA FEW022 BKN082 OVC100 14/14 Q1014
3:30 上午
V
57 °F 6¼ mi+ 10.000 ft 330° 330° 4 kt METAR LFSL 260130Z AUTO 33004KT 9999 RA FEW005/// OVC100/// ///TCU 14/14 Q1015
3:00 上午
V
59 °F 5⅝ mi 4.900 ft 350° 350° 6 kt METAR LFSL 260100Z AUTO 35006KT 300V020 9000 -RA FEW011/// BKN049/// OVC100/// //////CB 15/14 Q1015
2:30 上午
V
59 °F 6¼ mi+ 5.000 ft 290° 290° 6 kt METAR LFSL 260030Z AUTO 29006KT 240V310 9999 FEW003/// BKN050/// BKN068/// //////CB 15/14 Q1015
2:00 上午
V
59 °F 6¼ mi+ 7.000 ft 310° 310° 7 kt METAR LFSL 260000Z AUTO 31007KT 9999 FEW001/// BKN070/// OVC086/// ///CB 15/14 Q1014
1:30 上午
V
59 °F 6¼ mi+ 7.400 ft 310° 310° 3 kt METAR LFSL 252330Z AUTO 31003KT 270V010 9999 FEW004/// BKN074/// OVC084/// ///CB 15/14 Q1015
1:00 上午
V
59 °F 6¼ mi+ 7.800 ft Var Var 2 kt METAR LFSL 252300Z AUTO VRB02KT 9999 -RA FEW005/// BKN078/// OVC090/// ///CB 15/14 Q1015
12:30 上午
V
59 °F 6¼ mi+ - 340° 340° 3 kt METAR LFSL 252230Z AUTO 34003KT 310V010 9999 //////TCU 15/14 Q1015
12:00 上午
V
59 °F 6¼ mi+ - 300° 300° 5 kt METAR LFSL 252200Z AUTO 30005KT 250V330 9999 //////CB 15/14 Q1015

2022年6月25日

时间 代码 天气 温度 能见度 天花板 METAR/SPECI
11:30 下午
V
59 °F 6¼ mi+ - 290° 290° 3 kt METAR LFSL 252130Z AUTO 29003KT 9999 -RA //////CB 15/14 Q1015
11:00 下午
V
61 °F 6¼ mi+ - 320° 320° 6 kt METAR LFSL 252100Z AUTO 32006KT 9999 //////CB 16/14 Q1014
10:30 下午
V
61 °F 6¼ mi+ - 320° 320° 6 kt METAR LFSL 252030Z AUTO 32006KT 9999 //////CB 16/14 Q1014
10:00 下午
V
61 °F 6¼ mi+ - Var Var 2 kt METAR LFSL 252000Z AUTO VRB02KT 9999 TS ///CB 16/15 Q1015 TEMPO 4000 RA BECMG OVC006
9:30 下午
V
61 °F 6¼ mi+ - 320° 320° 6 kt METAR LFSL 251930Z AUTO 32006KT 9999 //////TCU 16/15 Q1014 TEMPO 4000 RA BKN009 BKN040 FEW050CB
9:00 下午
V
63 °F 6¼ mi+ 7.800 ft 320° 320° 7 kt METAR LFSL 251900Z AUTO 32007KT 9999 FEW010 BKN078 OVC130 17/15 Q1014 TEMPO 4000 RA BKN009 BKN040 FEW050CB
8:30 下午
I
63 °F 6¼ mi+ 900 ft 300° 300° 7 kt METAR LFSL 251830Z AUTO 30007KT 270V330 9999 BKN009 BKN016 OVC082 17/15 Q1014 TEMPO 4000 RA BKN012 BKN040 FEW050CB
8:00 下午
M
63 °F 6¼ mi+ 1.000 ft 290° 290° 7 kt METAR LFSL 251800Z AUTO 29007KT 250V310 9999 BKN010/// BKN015/// OVC029/// ///CB 17/16 Q1013 TEMPO 4000 RA
7:30 下午
M
64 °F 6¼ mi+ 2.700 ft 310° 310° 4 kt METAR LFSL 251730Z AUTO 31004KT 250V330 9999 TS SCT018/// BKN027/// BKN046/// //////CB 18/16 Q1013 TEMPO 4000 RA BKN012 BKN040 FEW050CB
7:00 下午
M
64 °F 6¼ mi+ 2.500 ft 330° 330° 8 kt METAR LFSL 251700Z AUTO 33008KT 9999 -RA FEW017/// BKN025/// BKN060/// ///CB 18/15 Q1013 TEMPO 4000 RA BKN012 BKN040 FEW050CB
6:30 下午
M
66 °F 6¼ mi+ 2.000 ft 310° 310° 6 kt METAR LFSL 251630Z AUTO 31006KT 260V340 9999 -RA BKN020/// BKN028/// OVC064/// //////CB 19/15 Q1013 TEMPO 4000 RA BKN012 BKN040 FEW050CB
6:00 下午
M
68 °F 6¼ mi+ 2.300 ft 310° 310° 9 kt METAR LFSL 251600Z AUTO 31009KT 260V330 9999 FEW018/// BKN023/// BKN064/// ///TCU 20/15 Q1013 TEMPO 4000 RA BKN012 BKN040 FEW050CB
5:30 下午
M
68 °F 6¼ mi+ 1.700 ft 300° 300° 9 kt METAR LFSL 251530Z AUTO 30009KT 260V340 9999 BKN017 BKN024 OVC062 20/15 Q1013 TEMPO 4000 RA BKN012 BKN040 FEW050CB
5:00 下午
M
68 °F 6¼ mi+ 1.700 ft 320° 320° 7 kt METAR LFSL 251500Z AUTO 32007KT 9999 BKN017 BKN024 BKN062 20/16 Q1012 TEMPO 4000 RA BKN012 BKN040 FEW050CB
较旧的数据

下载我们的应用程序

在您的手机和平板电脑上轻松访问所有航空天气。
有许多网站上没有的功能,如离线支持和个人机场列表。

Studio Eveline

Benalmádena
España

我们和第三方通过cookies跟踪您在我们网站上的上网行为。如果您继续,我们认为您同意我们的cookie政策。 了解更多